Stevens Point, WI

2:57 PM CST on December 05, 2019 (GMT -0600)
Stevens Point Municipal | | Change Station

Elev 1109 ft 44.54 °N, 89.53 °W | Updated 22 minutes ago

Overcast
Overcast
32 °F
Feels Like 27 °F
N
6
Wind Variable Wind from SSE

Today
High -- | Low -- °F
--% Chance of Precip.
Yesterday
High -- | Low -- °F
Precip. -- in
Pressure 29.88 in
Visibility 10.0 miles
Clouds Overcast 2400 ft
Windchill 27 °F
Dew Point 28 °F
Humidity 85%
Rainfall 0.00 in
Snow Depth Not available.
7:18 AM 4:18 PM
Waxing Gibbous, 65% visible
METAR KSTE 052035Z AUTO 15005KT 10SM OVC024 00/M02 A2988 RMK AO2 T00021020
Pressure 29.88 in
Visibility 10.0 miles
Clouds Overcast 2400 ft
Windchill 27 °F
Dew Point 28 °F
Humidity 85%
Rainfall 0.00 in
Snow Depth Not available.
7:18 AM 4:18 PM
Waxing Gibbous, 65% visible
METAR KSTE 052035Z AUTO 15005KT 10SM OVC024 00/M02 A2988 RMK AO2 T00021020

Get Severe Weather Alerts

Thanks for signing up!

Be on the lookout for a verification email in your inbox.

You'll start receiving the daily forecast at 6 AM.

×

10-Day Weather Forecast

Almanac

Astronomy

Dec. 05, 2019 Rise Set
Actual Time
Civil Twilight
Nautical Twilight
Astronomical Twilight
Moon
Length of Visible Light
Length of Day
Tomorrow will be .
, % of the Moon is Illuminated

Today's Extremes

State Highs State Lows

Community

WunderPhotos

Category 6

Welcome to Category 6. This is the collective home for Weather Underground's featured writeups by Dr. Jeff Masters (right), Bob Henson (left), Chris Burt, and other regular contributors.

Nearby

Air Quality

  Air Quality AQ Index Pollutant
Not available.

Snow Depth

Station Depth Elevation

Earthquake Activity

City Distance Mag. Time & Date
Minimum magnitude displayed is 2.5.

Coastal Water Temperatures

Place Temperature

Stations

Nearby Weather Stations

Station Location Temp. Windchill Dew Point Humidity Wind Precip. Elev Updated Type
                   

Watches & Warnings

There are currently no watches in effect.